createdAt,value
2019-03-16T00:03:33.693Z,23.59
2019-03-16T00:08:37.259Z,23.29
2019-03-16T00:13:40.795Z,23.00
2019-03-16T00:18:44.327Z,22.97
2019-03-16T00:23:47.894Z,23.22
2019-03-16T00:28:51.409Z,23.30
2019-03-16T00:33:54.979Z,23.81
2019-03-16T00:38:58.607Z,23.99
2019-03-16T00:44:02.209Z,24.26
2019-03-16T00:49:05.771Z,24.63
2019-03-16T00:54:09.347Z,24.59
2019-03-16T00:59:12.904Z,24.38
2019-03-16T01:04:16.477Z,24.75
2019-03-16T01:09:20.062Z,23.97
2019-03-16T01:14:23.667Z,23.65
2019-03-16T01:19:27.195Z,23.36
2019-03-16T01:24:30.783Z,22.79
2019-03-16T01:29:34.321Z,22.38
2019-03-16T01:34:37.874Z,22.55
2019-03-16T01:39:41.416Z,21.99
2019-03-16T01:44:44.953Z,21.50
2019-03-16T01:49:48.482Z,21.65
2019-03-16T01:54:52.061Z,21.95
2019-03-16T01:59:55.634Z,23.25
2019-03-16T02:04:59.171Z,23.15
2019-03-16T02:10:02.705Z,23.43
2019-03-16T02:15:08.505Z,23.98
2019-03-16T02:20:12.070Z,24.01
2019-03-16T02:25:15.605Z,24.16
2019-03-16T02:30:19.196Z,23.83
2019-03-16T02:35:22.713Z,23.85
2019-03-16T02:40:26.254Z,23.28
2019-03-16T02:45:29.825Z,23.12
2019-03-16T02:50:33.365Z,22.73
2019-03-16T02:55:36.946Z,22.40
2019-03-16T03:00:40.483Z,22.08
2019-03-16T03:05:44.017Z,21.66
2019-03-16T03:10:47.615Z,21.12
2019-03-16T03:15:51.160Z,20.63
2019-03-16T03:20:54.698Z,20.33
2019-03-16T03:25:58.236Z,20.17
2019-03-16T03:31:01.808Z,20.68
2019-03-16T03:36:05.381Z,21.78
2019-03-16T03:41:08.962Z,22.55
2019-03-16T03:46:12.484Z,23.14
2019-03-16T03:51:16.021Z,23.40
2019-03-16T03:56:19.588Z,23.81
2019-03-16T04:01:23.132Z,23.77
2019-03-16T04:06:26.744Z,23.88
2019-03-16T04:11:30.268Z,23.74
2019-03-16T04:16:33.809Z,23.33
2019-03-16T04:21:37.395Z,23.06
2019-03-16T04:26:40.927Z,22.67
2019-03-16T04:31:44.487Z,21.99
2019-03-16T04:36:48.023Z,21.75
2019-03-16T04:41:51.558Z,21.37
2019-03-16T04:46:55.123Z,20.85
2019-03-16T04:51:58.785Z,20.32
2019-03-16T04:57:02.349Z,20.11
2019-03-16T05:02:05.913Z,19.94
2019-03-16T05:07:09.481Z,19.73
2019-03-16T05:12:13.045Z,19.72
2019-03-16T05:17:16.604Z,20.75
2019-03-16T05:22:20.147Z,21.95
2019-03-16T05:27:23.686Z,22.27
2019-03-16T05:32:27.342Z,22.50
2019-03-16T05:37:30.888Z,22.32
2019-03-16T05:42:34.424Z,22.81
2019-03-16T05:47:37.959Z,23.31
2019-03-16T05:52:41.524Z,23.40
2019-03-16T05:57:45.083Z,23.40
2019-03-16T06:02:48.626Z,23.23
2019-03-16T06:07:52.191Z,22.86
2019-03-16T06:12:55.761Z,22.23
2019-03-16T06:17:59.305Z,21.76
2019-03-16T06:23:02.866Z,21.74
2019-03-16T06:28:06.403Z,21.68
2019-03-16T06:33:09.979Z,21.42
2019-03-16T06:38:13.524Z,21.30
2019-03-16T06:43:17.072Z,21.23
2019-03-16T06:48:20.741Z,20.98
2019-03-16T06:53:24.432Z,20.79
2019-03-16T06:58:28.003Z,20.72
2019-03-16T07:03:31.553Z,20.51
2019-03-16T07:08:35.117Z,20.60
2019-03-16T07:13:38.688Z,20.69
2019-03-16T07:18:42.273Z,20.35
2019-03-16T07:23:45.811Z,20.15
2019-03-16T07:28:49.482Z,20.07
2019-03-16T07:33:52.999Z,20.23
2019-03-16T07:38:56.533Z,20.11
2019-03-16T07:44:00.072Z,20.34
2019-03-16T07:49:03.723Z,20.32
2019-03-16T07:54:07.239Z,20.38
2019-03-16T07:59:10.811Z,20.37
2019-03-16T08:04:14.339Z,21.28
2019-03-16T08:09:17.909Z,21.74
2019-03-16T08:14:21.655Z,22.91
2019-03-16T08:19:25.285Z,22.80
2019-03-16T08:24:29.029Z,23.28
2019-03-16T08:29:32.559Z,23.60
2019-03-16T08:34:36.249Z,22.72
2019-03-16T08:39:40.773Z,22.78
2019-03-16T08:44:44.311Z,22.47
2019-03-16T08:49:47.883Z,22.48
2019-03-16T08:54:51.469Z,22.47
2019-03-16T08:59:55.219Z,22.56
2019-03-16T09:04:58.760Z,22.49
2019-03-16T09:10:02.323Z,22.49
2019-03-16T09:15:09.146Z,22.48
2019-03-16T09:20:12.720Z,22.39
2019-03-16T09:25:16.400Z,22.36
2019-03-16T09:30:19.920Z,22.36
2019-03-16T09:35:23.599Z,22.57
2019-03-16T09:40:27.129Z,22.50
2019-03-16T09:45:30.689Z,22.63
2019-03-16T09:50:34.249Z,22.34
2019-03-16T09:55:37.799Z,22.32
2019-03-16T10:00:41.362Z,22.39
2019-03-16T10:05:44.908Z,22.26
2019-03-16T10:10:48.445Z,21.96
2019-03-16T10:15:52.008Z,21.64
2019-03-16T10:20:55.571Z,21.78
2019-03-16T10:25:59.138Z,22.26
2019-03-16T10:31:02.709Z,22.43
2019-03-16T10:36:06.267Z,22.92
2019-03-16T10:41:09.848Z,22.42
2019-03-16T10:46:13.394Z,22.90
2019-03-16T10:51:16.955Z,22.95
2019-03-16T10:56:20.501Z,22.91
2019-03-16T11:01:24.040Z,22.82
2019-03-16T11:06:27.604Z,22.74
2019-03-16T11:11:31.201Z,22.88
2019-03-16T11:16:34.744Z,23.25
2019-03-16T11:21:38.327Z,22.61
2019-03-16T11:26:41.917Z,22.57
2019-03-16T11:31:45.857Z,22.57
2019-03-16T11:36:49.425Z,22.38
2019-03-16T11:41:53.013Z,22.72
2019-03-16T11:46:56.531Z,22.70
2019-03-16T11:52:00.090Z,22.35
2019-03-16T11:57:03.663Z,22.22
2019-03-16T12:02:07.222Z,22.11
2019-03-16T12:07:10.763Z,22.07
2019-03-16T12:12:14.441Z,21.96
2019-03-16T12:17:17.965Z,21.69
2019-03-16T12:22:21.699Z,21.48
2019-03-16T12:27:25.215Z,21.81
2019-03-16T12:32:28.776Z,21.55
2019-03-16T12:37:32.340Z,21.57
2019-03-16T12:42:35.971Z,21.72
2019-03-16T12:47:39.520Z,21.87
2019-03-16T12:52:43.094Z,22.11
2019-03-16T12:57:48.006Z,22.37
2019-03-16T13:02:51.902Z,22.65
2019-03-16T13:07:55.424Z,23.03
2019-03-16T13:12:59.107Z,22.86
2019-03-16T13:18:02.634Z,23.13
2019-03-16T13:23:06.210Z,22.87
2019-03-16T13:28:09.738Z,22.91
2019-03-16T13:33:13.270Z,22.77
2019-03-16T13:38:16.832Z,23.28
2019-03-16T13:43:20.379Z,22.71
2019-03-16T13:48:23.978Z,22.88
2019-03-16T13:53:27.512Z,22.59
2019-03-16T13:58:31.348Z,22.46
2019-03-16T14:03:34.883Z,22.41
2019-03-16T14:08:38.744Z,22.52
2019-03-16T14:13:42.300Z,22.30
2019-03-16T14:18:46.148Z,22.12
2019-03-16T14:23:49.688Z,21.62
2019-03-16T14:28:56.221Z,21.46
2019-03-16T14:33:59.796Z,21.34
2019-03-16T14:39:04.957Z,21.32
2019-03-16T14:44:08.486Z,21.16
2019-03-16T14:49:12.019Z,21.76
2019-03-16T14:54:15.568Z,22.07
2019-03-16T14:59:19.155Z,22.49
2019-03-16T15:04:22.706Z,22.88
2019-03-16T15:09:26.637Z,23.29
2019-03-16T15:14:30.171Z,23.72
2019-03-16T15:19:33.764Z,23.87
2019-03-16T15:24:37.326Z,23.61
2019-03-16T15:29:40.869Z,23.55
2019-03-16T15:34:44.402Z,23.38
2019-03-16T15:39:47.943Z,23.21
2019-03-16T15:44:51.512Z,23.10
2019-03-16T15:49:57.399Z,22.84
2019-03-16T15:55:00.475Z,22.58
2019-03-16T16:00:10.738Z,22.44
2019-03-16T16:05:14.332Z,22.33
2019-03-16T16:10:19.126Z,22.13
2019-03-16T16:15:22.655Z,21.97
2019-03-16T16:20:26.265Z,21.82
2019-03-16T16:25:29.793Z,21.65
2019-03-16T16:30:33.528Z,21.37
2019-03-16T16:35:37.052Z,21.06
2019-03-16T16:40:40.615Z,20.88
2019-03-16T16:45:46.660Z,20.77
2019-03-16T16:50:49.461Z,20.71
2019-03-16T16:55:53.006Z,20.57
2019-03-16T17:00:56.593Z,20.47
2019-03-16T17:06:00.137Z,20.53
2019-03-16T17:11:03.683Z,20.34
2019-03-16T17:16:07.299Z,20.23
2019-03-16T17:21:10.835Z,20.16
2019-03-16T17:26:14.372Z,20.16
2019-03-16T17:31:17.931Z,20.13
2019-03-16T17:36:22.376Z,20.10
2019-03-16T17:41:26.003Z,20.00
2019-03-16T17:46:29.562Z,19.95
2019-03-16T17:51:33.125Z,19.91
2019-03-16T17:56:36.661Z,19.86
2019-03-16T18:01:40.205Z,19.85
2019-03-16T18:06:43.783Z,19.81
2019-03-16T18:11:47.322Z,19.75
2019-03-16T18:16:50.881Z,19.78
2019-03-16T18:21:54.535Z,20.02
2019-03-16T18:26:58.075Z,21.11
2019-03-16T18:32:07.758Z,21.76
2019-03-16T18:37:06.896Z,22.06
2019-03-16T18:42:10.459Z,22.04
2019-03-16T18:47:14.021Z,21.76
2019-03-16T18:52:17.591Z,21.61
2019-03-16T18:57:21.152Z,21.27
2019-03-16T19:02:24.727Z,21.00
2019-03-16T19:07:28.253Z,20.55
2019-03-16T19:12:31.925Z,20.40
2019-03-16T19:17:35.490Z,20.26
2019-03-16T19:22:39.016Z,20.11
2019-03-16T19:27:42.578Z,20.02
2019-03-16T19:32:46.156Z,19.98
2019-03-16T19:37:49.735Z,19.96
2019-03-16T19:42:53.362Z,19.91
2019-03-16T19:47:57.139Z,19.37
2019-03-16T19:53:00.681Z,19.01
2019-03-16T19:58:04.866Z,18.55
2019-03-16T20:03:08.428Z,18.54
2019-03-16T20:08:11.990Z,18.47
2019-03-16T20:13:15.897Z,18.47
2019-03-16T20:18:19.431Z,18.18
2019-03-16T20:23:22.976Z,17.82
2019-03-16T20:28:26.550Z,17.89
2019-03-16T20:33:30.293Z,17.90
2019-03-16T20:38:33.819Z,17.91
2019-03-16T20:43:37.395Z,18.03
2019-03-16T20:48:40.952Z,18.27
2019-03-16T20:53:44.497Z,18.52
2019-03-16T20:58:48.093Z,18.41
2019-03-16T21:03:51.700Z,18.43
2019-03-16T21:09:03.039Z,18.43
2019-03-16T21:19:03.116Z,18.51
2019-03-16T21:24:07.524Z,18.55
2019-03-16T21:29:11.140Z,18.57
2019-03-16T21:34:14.713Z,18.59
2019-03-16T21:39:18.272Z,18.63
2019-03-16T21:44:21.862Z,18.67
2019-03-16T21:49:25.461Z,18.68
2019-03-16T21:54:29.181Z,18.70
2019-03-16T21:59:32.730Z,18.71
2019-03-16T22:04:36.294Z,18.72
2019-03-16T22:09:39.846Z,18.72
2019-03-16T22:14:43.530Z,18.75
2019-03-16T22:19:47.082Z,18.84
2019-03-16T22:24:50.656Z,19.31
2019-03-16T22:29:54.208Z,20.36
2019-03-16T22:34:58.023Z,21.70
2019-03-16T22:40:02.135Z,22.44
2019-03-16T22:45:07.981Z,22.25
2019-03-16T22:50:16.915Z,22.15
2019-03-16T22:55:20.504Z,22.39
2019-03-16T23:00:37.164Z,22.13
2019-03-16T23:05:40.258Z,22.07
2019-03-16T23:10:43.807Z,22.07
2019-03-16T23:15:47.369Z,21.96
2019-03-16T23:20:50.959Z,21.55
2019-03-16T23:25:54.489Z,21.32
2019-03-16T23:30:58.019Z,20.98
2019-03-16T23:36:01.588Z,20.58
2019-03-16T23:41:05.186Z,20.38
2019-03-16T23:46:08.782Z,20.08
2019-03-16T23:51:12.300Z,19.90
2019-03-16T23:56:15.872Z,19.73
